Time;durP1;ratioP1;P1;durP2;ratioP2;P2;SDS_P1;SDS_P2;PMS_P1;PMS_P2;Temp;Humidity;BMP_temperature;BMP_pressure;BME280_temperature;BME280_humidity;BME280_pressure;Samples;Min_cycle;Max_cycle;Signal;HPM_P1;HPM_P2
2021/02/25 00:00:09;;;;;;;6.4;3.1;;;;;;;5.11;72.41504;951.748;;;;
2021/02/25 00:02:38;;;;;;;7.8;3.7;;;;;;;5.13;72.49805;951.7516;;;;
2021/02/25 00:05:09;;;;;;;32.1;5.4;;;;;;;5.22;71.95898;951.7324;;;;
2021/02/25 00:07:40;;;;;;;14.8;4.2;;;;;;;5.21;71.7998;951.7328;;;;
2021/02/25 00:10:05;;;;;;;11.1;3.6;;;;;;;5.18;71.97559;951.7356;;;;
2021/02/25 00:12:30;;;;;;;11.4;5.1;;;;;;;5.16;71.99512;951.6746;;;;
2021/02/25 00:15:02;;;;;;;10;3.8;;;;;;;5.01;72.48828;951.72;;;;
2021/02/25 00:17:35;;;;;;;15.5;5.1;;;;;;;4.83;73.29102;951.6755;;;;
2021/02/25 00:20:00;;;;;;;7.5;3.6;;;;;;;5.03;72.51465;951.6509;;;;
2021/02/25 00:22:26;;;;;;;7.6;3.5;;;;;;;5.02;72.45605;951.6454;;;;
2021/02/25 00:24:56;;;;;;;4;2.6;;;;;;;5.18;71.76172;951.705;;;;
2021/02/25 00:27:22;;;;;;;10.7;3.7;;;;;;;5.18;71.57031;951.6624;;;;
2021/02/25 00:29:51;;;;;;;12.9;4.2;;;;;;;5.25;71.32227;951.6479;;;;
2021/02/25 00:32:22;;;;;;;5.8;3.3;;;;;;;5.08;71.91406;951.5815;;;;
2021/02/25 00:34:50;;;;;;;7.8;3.5;;;;;;;5.12;71.80859;951.6175;;;;
2021/02/25 00:37:15;;;;;;;10.3;3.6;;;;;;;5.19;71.32324;951.5419;;;;
2021/02/25 00:39:45;;;;;;;6.1;2.9;;;;;;;5.12;71.3916;951.5853;;;;
2021/02/25 00:42:08;;;;;;;10;4.3;;;;;;;5.08;71.77832;951.6177;;;;
2021/02/25 00:44:36;;;;;;;3.8;2.4;;;;;;;5.23;71.04883;951.4846;;;;
2021/02/25 00:47:01;;;;;;;4.1;2.6;;;;;;;5.14;71.21289;951.5544;;;;
2021/02/25 00:49:28;;;;;;;9.1;3.1;;;;;;;4.94;72.04785;951.5168;;;;
2021/02/25 00:51:53;;;;;;;6.7;2.7;;;;;;;4.97;72.12305;951.5212;;;;
2021/02/25 00:54:20;;;;;;;15.2;3.9;;;;;;;5.13;71.32422;951.4946;;;;
2021/02/25 00:56:45;;;;;;;15.5;3;;;;;;;5.15;71.0918;951.4833;;;;
2021/02/25 00:59:11;;;;;;;5.3;2.9;;;;;;;5.13;71.04395;951.5502;;;;
2021/02/25 01:01:36;;;;;;;7.4;3.7;;;;;;;5.04;71.4668;951.5154;;;;
2021/02/25 01:04:04;;;;;;;9.3;3.1;;;;;;;5.08;71.27148;951.5134;;;;
2021/02/25 01:06:29;;;;;;;9;4;;;;;;;5.11;71.11816;951.4891;;;;
2021/02/25 01:08:57;;;;;;;14.6;4.6;;;;;;;5.15;70.72949;951.483;;;;
2021/02/25 01:11:27;;;;;;;14.1;5.6;;;;;;;5.12;70.79297;951.5083;;;;
2021/02/25 01:13:52;;;;;;;8.7;3.6;;;;;;;4.74;72.3418;951.3764;;;;
2021/02/25 01:16:29;;;;;;;23.3;3.6;;;;;;;4.76;72.49121;951.4889;;;;
2021/02/25 01:18:54;;;;;;;11.5;2.9;;;;;;;4.58;73.1123;951.5119;;;;
2021/02/25 01:21:23;;;;;;;12.5;3.5;;;;;;;4.57;73.28125;951.5012;;;;
2021/02/25 01:23:53;;;;;;;13.4;3.7;;;;;;;4.71;72.56152;951.4709;;;;
2021/02/25 01:26:18;;;;;;;12.4;3.5;;;;;;;4.82;72.12891;951.4451;;;;
2021/02/25 01:28:48;;;;;;;8.7;3.4;;;;;;;4.96;71.31934;951.485;;;;
2021/02/25 01:31:15;;;;;;;6.8;2.8;;;;;;;4.77;71.95215;951.4655;;;;
2021/02/25 01:33:46;;;;;;;11.1;3.5;;;;;;;4.94;71.50684;951.382;;;;
2021/02/25 01:36:17;;;;;;;9.7;3.2;;;;;;;5.11;70.58984;951.4;;;;
2021/02/25 01:41:28;;;;;;;9.6;3.1;;;;;;;4.97;70.89063;951.3795;;;;
2021/02/25 01:43:56;;;;;;;14.6;3.4;;;;;;;4.85;71.17773;951.3773;;;;
2021/02/25 01:46:24;;;;;;;8.3;3.3;;;;;;;4.78;71.48047;951.4171;;;;
2021/02/25 01:48:49;;;;;;;9;3.4;;;;;;;4.84;71.05078;951.3279;;;;
2021/02/25 01:51:14;;;;;;;7.5;2.9;;;;;;;4.78;71.1543;951.3405;;;;
2021/02/25 01:53:42;;;;;;;9.7;2.5;;;;;;;4.97;70.66699;951.3189;;;;
2021/02/25 01:56:12;;;;;;;21.1;4.2;;;;;;;5.03;70.06934;951.3214;;;;
2021/02/25 01:58:32;;;;;;;14.5;3.8;;;;;;;4.95;70.23633;951.307;;;;
2021/02/25 02:00:58;;;;;;;6.8;3;;;;;;;5;69.99512;951.3132;;;;
2021/02/25 02:03:23;;;;;;;7.9;3.2;;;;;;;4.87;70.41406;951.2388;;;;
2021/02/25 02:05:48;;;;;;;10.5;2.8;;;;;;;4.85;70.53516;951.2586;;;;
2021/02/25 02:08:15;;;;;;;6.7;2.8;;;;;;;4.68;71.34961;951.1978;;;;
2021/02/25 02:10:40;;;;;;;9.3;3.3;;;;;;;4.64;71.53711;951.2906;;;;
2021/02/25 02:13:08;;;;;;;12.5;3.8;;;;;;;4.55;71.67969;951.2486;;;;
2021/02/25 02:15:45;;;;;;;10.6;3;;;;;;;4.69;71.20508;951.2416;;;;
2021/02/25 02:18:10;;;;;;;9.4;3.3;;;;;;;4.56;71.49902;951.2615;;;;
2021/02/25 02:20:41;;;;;;;13.6;4.2;;;;;;;4.29;72.82813;951.2001;;;;
2021/02/25 02:23:10;;;;;;;11.1;3.6;;;;;;;4.18;73.44922;951.1995;;;;
2021/02/25 02:25:37;;;;;;;11.2;4.1;;;;;;;4.23;73.58203;951.2263;;;;
2021/02/25 02:28:04;;;;;;;8.6;2.9;;;;;;;4.4;72.74512;951.2481;;;;
2021/02/25 02:30:29;;;;;;;8.9;2.9;;;;;;;4.31;72.875;951.2319;;;;
2021/02/25 02:32:55;;;;;;;16.7;3.2;;;;;;;4.29;73.05273;951.2137;;;;
2021/02/25 02:35:20;;;;;;;5.9;3;;;;;;;4.3;72.95313;951.2184;;;;
2021/02/25 02:37:46;;;;;;;13.4;3.4;;;;;;;4.28;72.89453;951.2173;;;;
2021/02/25 02:40:11;;;;;;;7.9;3.7;;;;;;;4.08;73.46582;951.2012;;;;
2021/02/25 02:42:38;;;;;;;12.3;3.3;;;;;;;3.9;74.27832;951.1925;;;;
2021/02/25 02:45:03;;;;;;;11.6;2.9;;;;;;;3.99;74.03516;951.1928;;;;
2021/02/25 02:47:28;;;;;;;7.2;3.5;;;;;;;4.07;73.56543;951.2101;;;;
2021/02/25 02:49:53;;;;;;;11.6;3.4;;;;;;;4;73.76855;951.188;;;;
2021/02/25 02:52:18;;;;;;;14.6;3.9;;;;;;;4.05;73.39355;951.25;;;;
2021/02/25 02:54:46;;;;;;;9.7;2.9;;;;;;;3.98;73.31348;951.2112;;;;
2021/02/25 02:57:11;;;;;;;12.8;3.8;;;;;;;4.12;72.79688;951.2555;;;;
2021/02/25 02:59:37;;;;;;;17.6;4.1;;;;;;;4.15;72.65527;951.1401;;;;
2021/02/25 03:02:03;;;;;;;5.1;3.3;;;;;;;4.34;71.95801;951.2316;;;;
2021/02/25 03:04:31;;;;;;;7;2.8;;;;;;;4.46;71.36035;951.2927;;;;
2021/02/25 03:06:56;;;;;;;8.5;3.2;;;;;;;4.51;70.99609;951.2361;;;;
2021/02/25 03:09:21;;;;;;;7.7;3.2;;;;;;;4.55;70.7334;951.2896;;;;
2021/02/25 03:11:46;;;;;;;11.9;2.9;;;;;;;4.61;70.52734;951.2784;;;;
2021/02/25 03:14:14;;;;;;;11.8;2.4;;;;;;;4.43;71.03906;951.3233;;;;
2021/02/25 03:16:41;;;;;;;9.3;3.1;;;;;;;4.39;71.25781;951.3248;;;;
2021/02/25 03:19:08;;;;;;;18.9;3.3;;;;;;;4.3;71.63574;951.2764;;;;
2021/02/25 03:21:33;;;;;;;9.3;3.4;;;;;;;4.08;72.37695;951.3472;;;;
2021/02/25 03:24:00;;;;;;;10.6;3.7;;;;;;;4.02;72.81543;951.3638;;;;
2021/02/25 03:26:25;;;;;;;10.9;2.9;;;;;;;4.19;72.25977;951.3083;;;;
2021/02/25 03:28:53;;;;;;;5.5;2.3;;;;;;;4.28;71.8252;951.3207;;;;
2021/02/25 03:31:21;;;;;;;4.5;2.4;;;;;;;4.26;72.02441;951.3039;;;;
2021/02/25 03:33:45;;;;;;;7.3;3.1;;;;;;;4.13;72.63184;951.3624;;;;
2021/02/25 03:36:11;;;;;;;8.9;3.7;;;;;;;4.1;72.70605;951.3405;;;;
2021/02/25 03:38:39;;;;;;;12.8;3.6;;;;;;;4.05;72.9668;951.373;;;;
2021/02/25 03:41:04;;;;;;;13.7;3.5;;;;;;;3.9;73.04297;951.3567;;;;
2021/02/25 03:43:29;;;;;;;13.3;3.2;;;;;;;3.73;73.7666;951.3582;;;;
2021/02/25 03:45:55;;;;;;;18.1;3.4;;;;;;;3.72;73.83105;951.3894;;;;
2021/02/25 03:48:21;;;;;;;10.5;2.9;;;;;;;3.69;73.82617;951.3855;;;;
2021/02/25 03:50:46;;;;;;;7.1;3.1;;;;;;;3.79;73.50781;951.4277;;;;
2021/02/25 03:53:13;;;;;;;12;3;;;;;;;3.83;73.22168;951.4104;;;;
2021/02/25 03:55:38;;;;;;;13.3;2.9;;;;;;;3.65;73.63965;951.5086;;;;
2021/02/25 03:58:04;;;;;;;8.1;3.4;;;;;;;3.63;73.72559;951.5508;;;;
2021/02/25 04:02:32;;;;;;;4.2;2;;;;;;;3.71;73.37988;951.5633;;;;
2021/02/25 04:04:57;;;;;;;8.3;3.2;;;;;;;3.67;73.48535;951.5592;;;;
2021/02/25 04:07:26;;;;;;;8.7;2.9;;;;;;;3.65;73.38184;951.5945;;;;
2021/02/25 04:09:51;;;;;;;11.1;3.9;;;;;;;3.5;74.1416;951.5578;;;;
2021/02/25 04:12:22;;;;;;;5.7;3;;;;;;;3.33;74.84082;951.5212;;;;
2021/02/25 04:14:51;;;;;;;8.3;3.3;;;;;;;3.24;75.63477;951.6194;;;;
2021/02/25 04:17:17;;;;;;;13.9;2.9;;;;;;;3.18;75.82617;951.6272;;;;
2021/02/25 04:19:46;;;;;;;12.4;4.1;;;;;;;3.24;75.67969;951.6658;;;;
2021/02/25 04:22:11;;;;;;;13.4;3.6;;;;;;;3.19;75.88477;951.6334;;;;
2021/02/25 04:24:40;;;;;;;13.9;3.5;;;;;;;3.16;76.11426;951.5977;;;;
2021/02/25 04:27:05;;;;;;;8.8;3.2;;;;;;;3.23;75.90137;951.6547;;;;
2021/02/25 04:29:35;;;;;;;12.9;4.5;;;;;;;3.29;75.41992;951.6245;;;;
2021/02/25 04:32:00;;;;;;;10.7;3.9;;;;;;;3.23;75.57617;951.6131;;;;
2021/02/25 04:34:32;;;;;;;20.1;5.6;;;;;;;3.17;76.03711;951.5706;;;;
2021/02/25 04:36:57;;;;;;;21.2;5;;;;;;;3.21;75.88672;951.6418;;;;
2021/02/25 04:39:27;;;;;;;9.5;4.1;;;;;;;3.24;75.73633;951.6333;;;;
2021/02/25 04:41:52;;;;;;;8.4;4.1;;;;;;;3.11;76.28418;951.6803;;;;
2021/02/25 04:44:24;;;;;;;18.9;4.5;;;;;;;3.14;75.9873;951.6264;;;;
2021/02/25 04:46:55;;;;;;;5;3;;;;;;;3.2;75.92969;951.5661;;;;
2021/02/25 04:49:23;;;;;;;15.9;4.3;;;;;;;3.27;75.5498;951.6644;;;;
2021/02/25 04:51:48;;;;;;;16.9;4.5;;;;;;;3.38;74.69336;951.6147;;;;
2021/02/25 04:54:17;;;;;;;10.9;4.1;;;;;;;3.34;74.45117;951.6071;;;;
2021/02/25 04:56:42;;;;;;;16.8;4.1;;;;;;;3.28;74.48535;951.5947;;;;
2021/02/25 04:59:11;;;;;;;14;3.6;;;;;;;3.35;74.2832;951.4965;;;;
2021/02/25 05:01:36;;;;;;;14.9;6.1;;;;;;;3.42;74.00488;951.4348;;;;
2021/02/25 05:04:06;;;;;;;17.5;6.1;;;;;;;3.42;73.93652;951.5305;;;;
2021/02/25 05:06:35;;;;;;;14.6;6;;;;;;;3.31;74.44531;951.5121;;;;
2021/02/25 05:09:00;;;;;;;18;7.3;;;;;;;3.27;74.85449;951.4389;;;;
2021/02/25 05:11:26;;;;;;;25.2;6.4;;;;;;;3.18;75.28711;951.5406;;;;
2021/02/25 05:13:55;;;;;;;19.2;6.4;;;;;;;3;75.96191;951.4755;;;;
2021/02/25 05:16:30;;;;;;;20;5.7;;;;;;;2.99;76.25195;951.562;;;;
2021/02/25 05:19:01;;;;;;;18.8;5.1;;;;;;;2.95;76.54688;951.5269;;;;
2021/02/25 05:21:32;;;;;;;16.5;4.4;;;;;;;3.05;76.25;951.4558;;;;
2021/02/25 05:24:01;;;;;;;14.5;4.4;;;;;;;3.19;75.62695;951.4478;;;;
2021/02/25 05:26:27;;;;;;;23.4;3.6;;;;;;;3.34;75.06934;951.4786;;;;
2021/02/25 05:28:52;;;;;;;6.9;3.6;;;;;;;3.3;75.07227;951.4353;;;;
2021/02/25 05:31:23;;;;;;;16.5;4.1;;;;;;;3.4;74.56152;951.4978;;;;
2021/02/25 05:33:48;;;;;;;13.8;4;;;;;;;3.47;74.30664;951.5322;;;;
2021/02/25 05:36:18;;;;;;;15.1;4.5;;;;;;;3.34;74.36133;951.5698;;;;
2021/02/25 05:38:49;;;;;;;9.8;4.2;;;;;;;3.29;74.16113;951.5811;;;;
2021/02/25 05:41:19;;;;;;;15.6;5.8;;;;;;;3.29;74.05078;951.5443;;;;
2021/02/25 05:43:44;;;;;;;14.8;5.3;;;;;;;3.34;73.7998;951.5676;;;;
2021/02/25 05:46:10;;;;;;;14.9;6.1;;;;;;;3.26;74.11133;951.5061;;;;
2021/02/25 05:48:35;;;;;;;18.1;4.4;;;;;;;3.26;74.24609;951.4677;;;;
2021/02/25 05:51:04;;;;;;;10.5;5;;;;;;;3.21;74.51758;951.5134;;;;
2021/02/25 05:53:29;;;;;;;9.5;3.4;;;;;;;3.16;74.78809;951.577;;;;
2021/02/25 05:55:58;;;;;;;13;4.2;;;;;;;3.23;74.56543;951.5266;;;;
2021/02/25 05:58:23;;;;;;;21.2;4.4;;;;;;;3.03;75.18262;951.5162;;;;
2021/02/25 06:00:54;;;;;;;9.6;3.7;;;;;;;2.85;76.10254;951.5687;;;;
2021/02/25 06:03:26;;;;;;;14.5;4.7;;;;;;;2.83;76.34766;951.5993;;;;
2021/02/25 06:05:55;;;;;;;20.3;4.6;;;;;;;3.02;75.5166;951.5912;;;;
2021/02/25 06:08:24;;;;;;;11.4;3.8;;;;;;;3.17;74.91309;951.5681;;;;
2021/02/25 06:10:51;;;;;;;10;3.7;;;;;;;3.25;74.36621;951.5817;;;;
2021/02/25 06:13:23;;;;;;;17.5;4.4;;;;;;;3.08;75.03418;951.6144;;;;
2021/02/25 06:15:56;;;;;;;9.4;3.9;;;;;;;2.98;75.54395;951.5703;;;;
2021/02/25 06:18:24;;;;;;;7.5;3.3;;;;;;;2.98;75.57715;951.5671;;;;
2021/02/25 06:20:50;;;;;;;21.4;6.1;;;;;;;3.09;76.89844;951.5265;;;;
2021/02/25 06:23:15;;;;;;;14;6;;;;;;;3.19;75.77148;951.6118;;;;
2021/02/25 06:25:42;;;;;;;32;4.7;;;;;;;3.24;74.60254;951.5215;;;;
2021/02/25 06:28:13;;;;;;;18.8;5.9;;;;;;;3.16;74.43066;951.6097;;;;
2021/02/25 06:30:43;;;;;;;12.9;4.6;;;;;;;3.19;74.52539;951.6663;;;;
2021/02/25 06:33:15;;;;;;;11.7;6.4;;;;;;;3.21;74.11328;951.6006;;;;
2021/02/25 06:35:46;;;;;;;15.2;4.8;;;;;;;3.28;73.7334;951.5947;;;;
2021/02/25 06:38:12;;;;;;;12.3;4.5;;;;;;;3.5;73.16406;951.6889;;;;
2021/02/25 06:40:47;;;;;;;7.8;4;;;;;;;3.89;71.40039;951.7133;;;;
2021/02/25 06:43:16;;;;;;;6;2.5;;;;;;;4.37;66.14355;951.6872;;;;
2021/02/25 06:45:42;;;;;;;20.8;3.6;;;;;;;5.14;65.48535;951.7447;;;;
2021/02/25 06:48:10;;;;;;;14.5;3.3;;;;;;;5.23;65.5791;951.7189;;;;
2021/02/25 06:50:35;;;;;;;22.3;3.9;;;;;;;5.33;65.56055;951.7231;;;;
2021/02/25 06:53:04;;;;;;;16;4.2;;;;;;;5.41;65.2793;951.7276;;;;
2021/02/25 06:55:35;;;;;;;10.4;3.9;;;;;;;5.53;65.27344;951.6914;;;;
2021/02/25 06:58:02;;;;;;;8;3;;;;;;;5.91;63.85352;951.7556;;;;
2021/02/25 07:00:27;;;;;;;6.3;3;;;;;;;6.09;63.01172;951.8074;;;;
2021/02/25 07:02:56;;;;;;;14.2;3.6;;;;;;;6.29;62.75684;951.7592;;;;
2021/02/25 07:05:23;;;;;;;21.7;4.6;;;;;;;6.57;62.88867;951.809;;;;
2021/02/25 07:07:47;;;;;;;9.9;3.7;;;;;;;6.67;63.46777;951.7773;;;;
2021/02/25 07:10:17;;;;;;;8.8;3.9;;;;;;;7.31;60.83203;951.8077;;;;
2021/02/25 07:12:42;;;;;;;13.9;5.4;;;;;;;7.37;59.02637;951.7609;;;;
2021/02/25 07:15:08;;;;;;;17.4;4.8;;;;;;;7.3;59.17676;951.7431;;;;
2021/02/25 07:17:39;;;;;;;14.3;4.9;;;;;;;7.56;59.37109;951.7475;;;;
2021/02/25 07:20:04;;;;;;;20.5;6.2;;;;;;;8.11;57.57422;951.7774;;;;
2021/02/25 07:22:29;;;;;;;12.5;5.8;;;;;;;8.54;56.08594;951.6641;;;;
2021/02/25 07:24:56;;;;;;;19.3;6.6;;;;;;;8.51;54.87695;951.7225;;;;
2021/02/25 07:27:21;;;;;;;16.7;6.1;;;;;;;8.73;55.96191;951.6843;;;;
2021/02/25 07:29:46;;;;;;;16.7;6.1;;;;;;;9.11;53.63477;951.6317;;;;
2021/02/25 07:32:12;;;;;;;8.4;4.2;;;;;;;9.28;51.25391;951.6127;;;;
2021/02/25 07:34:41;;;;;;;5.8;2.7;;;;;;;9.41;48.84277;951.6128;;;;
2021/02/25 07:37:07;;;;;;;16.4;4;;;;;;;9.71;48.74023;951.6361;;;;
2021/02/25 07:39:34;;;;;;;9.2;2.8;;;;;;;10.13;47.36133;951.5583;;;;
2021/02/25 07:42:00;;;;;;;7.7;2.1;;;;;;;10.36;46.37109;951.548;;;;
2021/02/25 07:44:25;;;;;;;24.7;4.3;;;;;;;10.78;45.13672;951.5527;;;;
2021/02/25 07:46:50;;;;;;;5.7;2.2;;;;;;;10.76;46.16211;951.6008;;;;
2021/02/25 07:49:17;;;;;;;6;2.6;;;;;;;10.87;45.11133;951.6105;;;;
2021/02/25 07:51:42;;;;;;;12.1;2.6;;;;;;;11.01;44.31445;951.5397;;;;
2021/02/25 07:54:12;;;;;;;12.6;2.7;;;;;;;11.08;43.75;951.5079;;;;
2021/02/25 07:56:37;;;;;;;13.8;3.2;;;;;;;11.33;44.06055;951.5464;;;;
2021/02/25 07:59:02;;;;;;;7.2;3.5;;;;;;;11.55;44.32422;951.5206;;;;
2021/02/25 08:01:28;;;;;;;10.5;2.9;;;;;;;12.24;42.1709;951.507;;;;
2021/02/25 08:03:53;;;;;;;27.5;5.4;;;;;;;12.75;42.51953;951.4749;;;;
2021/02/25 08:06:19;;;;;;;23.3;4.6;;;;;;;12.96;43.53711;951.4548;;;;
2021/02/25 08:08:45;;;;;;;14.3;3.5;;;;;;;13.45;41.67871;951.4189;;;;
2021/02/25 08:11:14;;;;;;;6.7;2.4;;;;;;;14.59;38.1582;951.3939;;;;
2021/02/25 08:13:43;;;;;;;9.7;3.1;;;;;;;15.08;36.95508;951.3254;;;;
2021/02/25 08:16:19;;;;;;;8.6;1.6;;;;;;;15.28;36.63672;951.3083;;;;
2021/02/25 08:18:44;;;;;;;6.4;1.6;;;;;;;15.98;34.6377;951.2881;;;;
2021/02/25 08:21:09;;;;;;;14.9;3.6;;;;;;;17.2;31.7666;951.2539;;;;
2021/02/25 08:23:34;;;;;;;5.2;2.9;;;;;;;18.88;29.9209;951.2024;;;;
2021/02/25 08:26:00;;;;;;;5.3;2.1;;;;;;;18.81;28.69434;951.195;;;;
2021/02/25 08:28:25;;;;;;;16.9;1.7;;;;;;;20.61;26.9541;951.1097;;;;
2021/02/25 08:30:52;;;;;;;4;2;;;;;;;20.23;26.68555;951.1284;;;;
2021/02/25 08:33:17;;;;;;;11.8;2.6;;;;;;;20.43;26.23047;951.1008;;;;
2021/02/25 08:35:42;;;;;;;5.8;2.2;;;;;;;21.73;24.64453;951.0558;;;;
2021/02/25 08:38:09;;;;;;;6.3;1.9;;;;;;;22.42;24.54199;951.0306;;;;
2021/02/25 08:40:39;;;;;;;10.8;2.1;;;;;;;21.47;24.66406;950.9754;;;;
2021/02/25 08:43:04;;;;;;;9.9;2.3;;;;;;;22.16;23.83496;950.9493;;;;
2021/02/25 08:45:29;;;;;;;6.4;2.4;;;;;;;23.63;21.84375;950.8688;;;;
2021/02/25 08:47:57;;;;;;;6.4;2.4;;;;;;;23.15;22.0791;950.8895;;;;
2021/02/25 08:50:23;;;;;;;9.1;2.4;;;;;;;22.35;22.94238;950.9353;;;;
2021/02/25 08:52:53;;;;;;;6.2;1.8;;;;;;;21.64;22.97656;950.8203;;;;
2021/02/25 08:55:17;;;;;;;6.6;2.5;;;;;;;20.64;24.89941;950.8233;;;;
2021/02/25 08:57:42;;;;;;;4.3;1.5;;;;;;;21.09;24.49121;950.7545;;;;
2021/02/25 09:00:08;;;;;;;2.6;1.5;;;;;;;22.48;23.29004;950.7184;;;;
2021/02/25 09:02:33;;;;;;;5.1;1.8;;;;;;;22.79;23.17676;950.6953;;;;
2021/02/25 09:04:58;;;;;;;3.1;1.5;;;;;;;23.77;21.62695;950.7236;;;;
2021/02/25 09:07:23;;;;;;;3.8;1.7;;;;;;;23.86;21.90234;950.6486;;;;
2021/02/25 09:09:48;;;;;;;2.8;1.6;;;;;;;23.17;21.49316;950.5485;;;;
2021/02/25 09:12:17;;;;;;;14.4;3.1;;;;;;;22.9;22.06641;950.4455;;;;
2021/02/25 09:14:42;;;;;;;3.9;1.8;;;;;;;21.56;23.10059;950.5948;;;;
2021/02/25 09:17:10;;;;;;;11;2;;;;;;;22.69;22.62012;950.4739;;;;
2021/02/25 09:19:39;;;;;;;15.4;2.6;;;;;;;22.45;22.50195;950.507;;;;
2021/02/25 09:22:04;;;;;;;6.3;1.3;;;;;;;22.17;21.95996;950.4573;;;;
2021/02/25 09:24:32;;;;;;;4.7;1.8;;;;;;;22.63;22.05371;950.4352;;;;
2021/02/25 09:26:58;;;;;;;6;2;;;;;;;22.93;21.64551;950.34;;;;
2021/02/25 09:29:23;;;;;;;4.6;1.6;;;;;;;23.08;22.46289;950.3391;;;;
2021/02/25 09:31:48;;;;;;;9.8;1.5;;;;;;;22.76;21.96582;950.3231;;;;
2021/02/25 09:34:19;;;;;;;5.5;1.8;;;;;;;23.5;22.36719;950.2831;;;;
2021/02/25 09:36:46;;;;;;;7.1;1.9;;;;;;;23.24;21.87207;950.1614;;;;
2021/02/25 09:39:10;;;;;;;8.4;2.1;;;;;;;23.08;21.26465;950.1993;;;;
2021/02/25 09:41:35;;;;;;;5;2.2;;;;;;;23.61;21.7373;950.1583;;;;
2021/02/25 09:44:00;;;;;;;7.5;2.5;;;;;;;23.48;21.22461;950.1453;;;;
2021/02/25 09:46:25;;;;;;;7.2;1.5;;;;;;;23.83;20.74707;950.1033;;;;
2021/02/25 09:48:53;;;;;;;9.9;2;;;;;;;23.68;21.23535;950.0397;;;;
2021/02/25 09:51:18;;;;;;;14.5;3.1;;;;;;;22.55;21.04004;950.0449;;;;
2021/02/25 09:53:44;;;;;;;8.7;1.2;;;;;;;22.88;21.6084;950.0233;;;;
2021/02/25 09:56:09;;;;;;;5.3;1.3;;;;;;;22.89;21.6084;949.9995;;;;
2021/02/25 09:58:34;;;;;;;8;2.6;;;;;;;22.9;20.85742;950.0302;;;;
2021/02/25 10:00:59;;;;;;;4.5;1.8;;;;;;;22.55;21.06348;949.9945;;;;
2021/02/25 10:03:25;;;;;;;12.5;1.9;;;;;;;23.41;20.99902;949.9553;;;;
2021/02/25 10:05:50;;;;;;;2.6;1.6;;;;;;;23.19;20.27148;949.9451;;;;
2021/02/25 10:08:21;;;;;;;6.5;2.1;;;;;;;22.82;20.50098;949.9583;;;;
2021/02/25 10:10:42;;;;;;;4.3;1.8;;;;;;;22.53;21.12207;949.9177;;;;
2021/02/25 10:13:07;;;;;;;9.6;2;;;;;;;22.36;21.14844;949.9497;;;;
2021/02/25 10:15:38;;;;;;;14.1;2.8;;;;;;;22.3;21.22754;949.9118;;;;
2021/02/25 10:18:04;;;;;;;4.9;2.3;;;;;;;22.16;21.3623;949.8814;;;;
2021/02/25 10:20:30;;;;;;;4.5;2;;;;;;;22.53;20.875;949.7699;;;;
2021/02/25 10:22:55;;;;;;;6.2;1.6;;;;;;;21.99;21.48242;949.7935;;;;
2021/02/25 10:25:36;;;;;;;9.3;2.3;;;;;;;21.32;21.53223;949.7509;;;;
2021/02/25 10:28:01;;;;;;;8;2.7;;;;;;;21.49;21.11816;949.7269;;;;
2021/02/25 10:30:26;;;;;;;10.1;1.9;;;;;;;21.49;21.21191;949.675;;;;
2021/02/25 10:32:51;;;;;;;7.2;1.2;;;;;;;21.49;22.26563;949.6824;;;;
2021/02/25 10:35:21;;;;;;;4.7;1.6;;;;;;;21.64;22.13281;949.6884;;;;
2021/02/25 10:37:46;;;;;;;10;1.4;;;;;;;21.94;21.17578;949.6541;;;;
2021/02/25 10:40:14;;;;;;;8.6;2.5;;;;;;;22.03;20.52344;949.6398;;;;
2021/02/25 10:42:39;;;;;;;24.9;1.5;;;;;;;21.78;20.62891;949.5331;;;;
2021/02/25 10:45:04;;;;;;;3.5;1.4;;;;;;;22.1;20.66699;949.5343;;;;
2021/02/25 10:47:32;;;;;;;7;1.8;;;;;;;22.59;18.98828;949.4246;;;;
2021/02/25 10:49:57;;;;;;;2.3;1.6;;;;;;;22.89;19.14258;949.4081;;;;
2021/02/25 10:52:26;;;;;;;2.4;1.2;;;;;;;23.04;18.4668;949.3688;;;;
2021/02/25 10:54:51;;;;;;;12.2;2.1;;;;;;;22.77;18.98438;949.3792;;;;
2021/02/25 10:57:17;;;;;;;2.9;1.8;;;;;;;23.16;18.98926;949.2972;;;;
2021/02/25 10:59:43;;;;;;;6;2.2;;;;;;;23.37;19.84473;949.3212;;;;
2021/02/25 11:02:09;;;;;;;4.3;1;;;;;;;23.86;18.34863;949.2679;;;;
2021/02/25 11:04:34;;;;;;;2.2;1.1;;;;;;;24.15;18.72461;949.253;;;;
2021/02/25 11:07:00;;;;;;;10.1;1.8;;;;;;;24.41;18.34766;949.2058;;;;
2021/02/25 11:09:25;;;;;;;7.3;2.3;;;;;;;25.23;18.14453;949.2211;;;;
2021/02/25 11:11:55;;;;;;;5.7;2.1;;;;;;;25.39;16.75781;949.1911;;;;
2021/02/25 11:14:25;;;;;;;6.9;1.5;;;;;;;25.48;17.11523;949.1201;;;;
2021/02/25 11:16:57;;;;;;;4.5;1.4;;;;;;;25.79;16.47754;949.0144;;;;
2021/02/25 11:19:25;;;;;;;3.5;1;;;;;;;25.93;15.93848;949.0207;;;;
2021/02/25 11:21:50;;;;;;;2.3;1;;;;;;;26;15.30176;949.0005;;;;
2021/02/25 11:24:19;;;;;;;5.5;1.6;;;;;;;26.11;15.44824;948.9799;;;;
2021/02/25 11:26:48;;;;;;;5.7;1.2;;;;;;;26.27;14.94434;948.9113;;;;
2021/02/25 11:29:13;;;;;;;2.6;0.9;;;;;;;26.99;14.71973;948.9052;;;;
2021/02/25 11:31:38;;;;;;;8.5;2.4;;;;;;;26.97;14.22168;948.9073;;;;
2021/02/25 11:34:07;;;;;;;5.3;1.8;;;;;;;27.21;14.1582;948.9073;;;;
2021/02/25 11:36:38;;;;;;;4.3;1.6;;;;;;;27.27;14.24219;948.8194;;;;
2021/02/25 11:39:06;;;;;;;2;1.1;;;;;;;27.07;13.75;948.7842;;;;
2021/02/25 11:41:33;;;;;;;3.9;1.4;;;;;;;28.14;13.83008;948.7816;;;;
2021/02/25 11:44:02;;;;;;;4.6;0.9;;;;;;;28.42;12.9834;948.7645;;;;
2021/02/25 11:46:31;;;;;;;2.8;1.1;;;;;;;28.85;13.22168;948.7888;;;;
2021/02/25 11:48:57;;;;;;;2.3;1.5;;;;;;;28.99;11.4873;948.7075;;;;
2021/02/25 11:51:22;;;;;;;2.7;1.3;;;;;;;28.95;11.47461;948.7061;;;;
2021/02/25 11:53:47;;;;;;;5.1;2;;;;;;;29.41;11.3916;948.634;;;;
2021/02/25 11:56:14;;;;;;;3.1;1.3;;;;;;;30.18;11.2793;948.653;;;;
2021/02/25 11:58:39;;;;;;;10.2;1.7;;;;;;;29.99;10.7373;948.6454;;;;
2021/02/25 12:01:06;;;;;;;2;0.8;;;;;;;30.66;10.90918;948.6058;;;;
2021/02/25 12:03:31;;;;;;;7.1;1.7;;;;;;;31.27;10.81641;948.5591;;;;
2021/02/25 12:05:58;;;;;;;5.6;1.5;;;;;;;31.59;10.34473;948.5862;;;;
2021/02/25 12:08:23;;;;;;;4.5;1.5;;;;;;;30.92;9.886719;948.5019;;;;
2021/02/25 12:10:49;;;;;;;5.9;1.5;;;;;;;32.25;9.556641;948.4894;;;;
2021/02/25 12:13:19;;;;;;;3.7;1.4;;;;;;;32.86;9.28125;948.4933;;;;
2021/02/25 12:15:46;;;;;;;3.7;1.6;;;;;;;33.45;9.353516;948.4342;;;;
2021/02/25 12:18:11;;;;;;;6.9;1.2;;;;;;;33.27;9.349609;948.413;;;;
2021/02/25 12:20:39;;;;;;;3.3;1.7;;;;;;;34.18;9.295898;948.334;;;;
2021/02/25 12:23:04;;;;;;;10.5;1.6;;;;;;;34.56;8.0625;948.3162;;;;
2021/02/25 12:25:34;;;;;;;2;1.3;;;;;;;35.28;8.570313;948.2403;;;;
2021/02/25 12:28:04;;;;;;;9.8;1.3;;;;;;;35.94;8.15918;948.2706;;;;
2021/02/25 12:30:37;;;;;;;3.4;1.6;;;;;;;37.48;6.9375;948.2463;;;;
2021/02/25 12:33:04;;;;;;;1.7;0.9;;;;;;;38.11;7.298828;948.2411;;;;
2021/02/25 12:35:29;;;;;;;8;1.7;;;;;;;38.33;6.597656;948.2227;;;;
2021/02/25 12:37:56;;;;;;;3.5;0.8;;;;;;;38.25;6.717773;948.1691;;;;
2021/02/25 12:40:22;;;;;;;3.2;1.2;;;;;;;38.9;6.788086;948.0978;;;;
2021/02/25 12:42:49;;;;;;;2.4;0.8;;;;;;;39.76;6.630859;948.06;;;;
2021/02/25 12:45:14;;;;;;;6.5;1.2;;;;;;;39.12;7.144531;948.0422;;;;
2021/02/25 12:47:41;;;;;;;10.7;1.8;;;;;;;38.33;7.242188;948.0658;;;;
2021/02/25 12:50:06;;;;;;;4.9;1.3;;;;;;;38.72;7.345703;947.932;;;;
2021/02/25 12:52:34;;;;;;;1.6;0.8;;;;;;;39.56;6.700195;947.9257;;;;
2021/02/25 12:54:59;;;;;;;4.3;1.2;;;;;;;39.75;6.922852;947.9091;;;;
2021/02/25 12:57:25;;;;;;;3.3;1.2;;;;;;;40.28;6.710938;947.9056;;;;
2021/02/25 12:59:50;;;;;;;2.6;1.2;;;;;;;39.71;6.8125;947.9028;;;;
2021/02/25 13:02:16;;;;;;;4.1;1.5;;;;;;;39.6;7.261719;947.8864;;;;
2021/02/25 13:04:43;;;;;;;5.4;0.9;;;;;;;39.76;7.776367;947.9077;;;;
2021/02/25 13:07:09;;;;;;;3.9;1.4;;;;;;;39.27;7.707031;947.8571;;;;
2021/02/25 13:09:35;;;;;;;2.7;1.2;;;;;;;39.17;7.912109;947.856;;;;
2021/02/25 13:12:00;;;;;;;5.5;1.6;;;;;;;37.77;8.931641;947.7692;;;;
2021/02/25 13:14:25;;;;;;;1.7;0.9;;;;;;;37.32;8.899414;947.7445;;;;
2021/02/25 13:16:50;;;;;;;5.1;1.7;;;;;;;36.89;9.084961;947.743;;;;
2021/02/25 13:19:18;;;;;;;1.7;1;;;;;;;36.84;9.337891;947.7411;;;;
2021/02/25 13:21:43;;;;;;;1.7;0.8;;;;;;;36.54;8.957031;947.6841;;;;
2021/02/25 13:24:12;;;;;;;7.1;1.7;;;;;;;35.79;9.751953;947.6592;;;;
2021/02/25 13:26:37;;;;;;;2.4;1.1;;;;;;;36.3;9.084961;947.6603;;;;
2021/02/25 13:29:06;;;;;;;5.9;1.3;;;;;;;36.15;9.46875;947.6181;;;;
2021/02/25 13:31:35;;;;;;;3.7;1.1;;;;;;;35.87;10.08008;947.5834;;;;
2021/02/25 13:34:01;;;;;;;8.2;1.8;;;;;;;36.68;9.467773;947.6082;;;;
2021/02/25 13:36:29;;;;;;;3.5;1.4;;;;;;;36.88;9.605469;947.6025;;;;
2021/02/25 13:38:57;;;;;;;4.1;1.1;;;;;;;37.26;9.176758;947.5889;;;;
2021/02/25 13:41:22;;;;;;;4.5;1.5;;;;;;;37.68;9.282227;947.5931;;;;
2021/02/25 13:43:54;;;;;;;6.2;1.5;;;;;;;38.52;9.117188;947.5715;;;;
2021/02/25 13:46:22;;;;;;;7.5;1.1;;;;;;;37.93;9.250977;947.5247;;;;
2021/02/25 13:48:49;;;;;;;10;1.9;;;;;;;38.09;8.950195;947.5627;;;;
2021/02/25 13:51:15;;;;;;;2.4;1.2;;;;;;;37.02;9.499023;947.5602;;;;
2021/02/25 13:53:41;;;;;;;2.6;1.3;;;;;;;35.59;11.78906;947.5253;;;;
2021/02/25 13:56:06;;;;;;;4.6;1.2;;;;;;;34.24;12.05566;947.4847;;;;
2021/02/25 13:58:31;;;;;;;4.4;1.4;;;;;;;33.85;12.10449;947.5491;;;;
2021/02/25 14:00:58;;;;;;;6.6;1.2;;;;;;;34.31;12.28613;947.5026;;;;
2021/02/25 14:03:24;;;;;;;3.3;1.7;;;;;;;35.03;11.00195;947.5298;;;;
2021/02/25 14:05:50;;;;;;;6.3;1.6;;;;;;;35.13;11.7168;947.495;;;;
2021/02/25 14:08:15;;;;;;;3.7;1.5;;;;;;;35.69;11.12695;947.508;;;;
2021/02/25 14:10:40;;;;;;;4;2;;;;;;;33.47;13.29688;947.5342;;;;
2021/02/25 14:13:09;;;;;;;6.2;1.5;;;;;;;31.87;14.01758;947.4249;;;;
2021/02/25 14:15:49;;;;;;;6.6;1.7;;;;;;;32.39;13.8291;947.5247;;;;
2021/02/25 14:18:18;;;;;;;2.7;1.8;;;;;;;33.13;13.04688;947.5151;;;;
2021/02/25 14:20:43;;;;;;;6.8;1.9;;;;;;;32.36;13.73242;947.5028;;;;
2021/02/25 14:23:13;;;;;;;5.8;2.2;;;;;;;31.33;14.71875;947.4835;;;;
2021/02/25 14:25:40;;;;;;;9.6;2.2;;;;;;;32.35;14.58398;947.486;;;;
2021/02/25 14:28:05;;;;;;;1.8;1.3;;;;;;;32.76;13.88867;947.5137;;;;
2021/02/25 14:30:40;;;;;;;9.7;2.7;;;;;;;32.81;13.58984;947.4888;;;;